KPRN

Mac Crenshaw Memorial Airport

Greenville, Alabama, USA
METAR KPRN 181256Z AUTO 00000KT 10SM CLR 02/00 A3015 RMK AO2 SLP209 T00220000
Observed Flight Rules
Dec-18 @ 12:56 UTC (32 minutes ago) Visual Flight Rules
Visibility Clouds
10 miles
  • Clear skies
Temperatures Readings
Current 2°C / 36°F
Dewpoint 0°C / 32°F
Humidity 87%
Altimeter 30.15" Hg
Pressure 1020.9 hPa
Elevation 138
METAR KPRN 181256Z AUTO 00000KT 10SM CLR 02/00 A3015 RMK AO2 SLP209 T00220000
Observed Flight Rules
Dec-18 @ 12:56 UTC
(32 minutes ago)
VFR
Clouds
  • Clear skies
Temperature Dewpoint
2°C / 36°F 0°C / 32°F
Humidity Altimeter Pressure
87% 30.15" Hg 1020.9 hPa